sensor_id;sensor_type;location;lat;lon;timestamp;P1;durP1;ratioP1;P2;durP2;ratioP2
77350;SDS011;66420;50.246;14.320;2023-04-03T00:00:10;4.20;;;1.92;;
77350;SDS011;66420;50.246;14.320;2023-04-03T00:02:56;6.85;;;2.75;;
77350;SDS011;66420;50.246;14.320;2023-04-03T00:05:40;4.35;;;1.67;;
77350;SDS011;66420;50.246;14.320;2023-04-03T00:08:25;5.15;;;1.90;;
77350;SDS011;66420;50.246;14.320;2023-04-03T00:11:10;11.93;;;2.30;;
77350;SDS011;66420;50.246;14.320;2023-04-03T00:13:55;7.20;;;2.58;;
77350;SDS011;66420;50.246;14.320;2023-04-03T00:16:40;6.93;;;2.55;;
77350;SDS011;66420;50.246;14.320;2023-04-03T00:19:25;6.68;;;2.50;;
77350;SDS011;66420;50.246;14.320;2023-04-03T00:22:09;5.00;;;2.42;;
77350;SDS011;66420;50.246;14.320;2023-04-03T00:24:54;4.80;;;2.00;;
77350;SDS011;66420;50.246;14.320;2023-04-03T00:27:40;7.20;;;2.05;;
77350;SDS011;66420;50.246;14.320;2023-04-03T00:30:25;3.88;;;2.10;;
77350;SDS011;66420;50.246;14.320;2023-04-03T00:33:13;4.90;;;2.03;;
77350;SDS011;66420;50.246;14.320;2023-04-03T00:35:58;4.03;;;1.92;;
77350;SDS011;66420;50.246;14.320;2023-04-03T00:38:42;6.63;;;2.10;;
77350;SDS011;66420;50.246;14.320;2023-04-03T00:41:27;6.00;;;2.25;;
77350;SDS011;66420;50.246;14.320;2023-04-03T00:44:22;4.32;;;1.73;;
77350;SDS011;66420;50.246;14.320;2023-04-03T00:47:27;5.32;;;2.20;;
77350;SDS011;66420;50.246;14.320;2023-04-03T00:50:12;4.22;;;1.73;;
77350;SDS011;66420;50.246;14.320;2023-04-03T00:52:57;4.18;;;1.70;;
77350;SDS011;66420;50.246;14.320;2023-04-03T00:55:42;5.57;;;2.10;;
77350;SDS011;66420;50.246;14.320;2023-04-03T00:58:31;5.05;;;1.80;;
77350;SDS011;66420;50.246;14.320;2023-04-03T01:01:22;6.60;;;1.85;;
77350;SDS011;66420;50.246;14.320;2023-04-03T01:07:15;5.53;;;1.77;;
77350;SDS011;66420;50.246;14.320;2023-04-03T01:12:51;5.60;;;1.50;;
77350;SDS011;66420;50.246;14.320;2023-04-03T01:15:37;5.03;;;1.98;;
77350;SDS011;66420;50.246;14.320;2023-04-03T01:18:22;5.18;;;1.88;;
77350;SDS011;66420;50.246;14.320;2023-04-03T01:24:32;6.43;;;2.28;;
77350;SDS011;66420;50.246;14.320;2023-04-03T01:27:22;6.82;;;2.50;;
77350;SDS011;66420;50.246;14.320;2023-04-03T01:30:07;3.30;;;1.33;;
77350;SDS011;66420;50.246;14.320;2023-04-03T01:32:53;5.90;;;1.70;;
77350;SDS011;66420;50.246;14.320;2023-04-03T01:35:37;3.97;;;1.30;;
77350;SDS011;66420;50.246;14.320;2023-04-03T01:38:22;3.20;;;1.20;;
77350;SDS011;66420;50.246;14.320;2023-04-03T01:41:07;5.18;;;1.27;;
77350;SDS011;66420;50.246;14.320;2023-04-03T01:43:52;5.50;;;1.60;;
77350;SDS011;66420;50.246;14.320;2023-04-03T01:46:36;2.97;;;1.20;;
77350;SDS011;66420;50.246;14.320;2023-04-03T01:49:22;7.80;;;1.95;;
77350;SDS011;66420;50.246;14.320;2023-04-03T01:52:06;4.00;;;1.30;;
77350;SDS011;66420;50.246;14.320;2023-04-03T01:54:51;3.13;;;1.20;;
77350;SDS011;66420;50.246;14.320;2023-04-03T01:57:36;3.45;;;0.90;;
77350;SDS011;66420;50.246;14.320;2023-04-03T02:00:21;3.72;;;1.23;;
77350;SDS011;66420;50.246;14.320;2023-04-03T02:03:05;4.55;;;1.30;;
77350;SDS011;66420;50.246;14.320;2023-04-03T02:05:50;6.60;;;1.30;;
77350;SDS011;66420;50.246;14.320;2023-04-03T02:08:35;3.42;;;1.13;;
77350;SDS011;66420;50.246;14.320;2023-04-03T02:11:20;6.88;;;1.52;;
77350;SDS011;66420;50.246;14.320;2023-04-03T02:14:04;4.47;;;1.10;;
77350;SDS011;66420;50.246;14.320;2023-04-03T02:16:49;5.50;;;1.45;;
77350;SDS011;66420;50.246;14.320;2023-04-03T02:19:35;5.90;;;1.60;;
77350;SDS011;66420;50.246;14.320;2023-04-03T02:22:20;3.88;;;1.20;;
77350;SDS011;66420;50.246;14.320;2023-04-03T02:25:04;5.53;;;1.60;;
77350;SDS011;66420;50.246;14.320;2023-04-03T02:27:49;3.72;;;1.25;;
77350;SDS011;66420;50.246;14.320;2023-04-03T02:30:34;4.00;;;1.17;;
77350;SDS011;66420;50.246;14.320;2023-04-03T02:33:19;3.55;;;1.05;;
77350;SDS011;66420;50.246;14.320;2023-04-03T02:36:05;5.30;;;1.30;;
77350;SDS011;66420;50.246;14.320;2023-04-03T02:38:51;3.30;;;1.15;;
77350;SDS011;66420;50.246;14.320;2023-04-03T02:41:36;4.30;;;0.93;;
77350;SDS011;66420;50.246;14.320;2023-04-03T02:44:20;4.10;;;1.10;;
77350;SDS011;66420;50.246;14.320;2023-04-03T02:54:28;4.32;;;1.45;;
77350;SDS011;66420;50.246;14.320;2023-04-03T02:57:14;4.38;;;1.50;;
77350;SDS011;66420;50.246;14.320;2023-04-03T02:59:59;2.80;;;1.40;;
77350;SDS011;66420;50.246;14.320;2023-04-03T03:02:44;4.93;;;1.98;;
77350;SDS011;66420;50.246;14.320;2023-04-03T03:05:29;3.45;;;1.63;;
77350;SDS011;66420;50.246;14.320;2023-04-03T03:08:14;7.07;;;1.70;;
77350;SDS011;66420;50.246;14.320;2023-04-03T03:10:58;4.47;;;1.50;;
77350;SDS011;66420;50.246;14.320;2023-04-03T03:13:44;4.68;;;1.30;;
77350;SDS011;66420;50.246;14.320;2023-04-03T03:16:29;4.03;;;1.20;;
77350;SDS011;66420;50.246;14.320;2023-04-03T03:19:14;4.30;;;1.33;;
77350;SDS011;66420;50.246;14.320;2023-04-03T03:21:58;3.75;;;1.33;;
77350;SDS011;66420;50.246;14.320;2023-04-03T03:24:44;4.47;;;1.23;;
77350;SDS011;66420;50.246;14.320;2023-04-03T03:30:37;6.05;;;1.40;;
77350;SDS011;66420;50.246;14.320;2023-04-03T03:33:22;5.10;;;1.40;;
77350;SDS011;66420;50.246;14.320;2023-04-03T03:36:07;6.00;;;1.40;;
77350;SDS011;66420;50.246;14.320;2023-04-03T03:38:52;3.00;;;1.45;;
77350;SDS011;66420;50.246;14.320;2023-04-03T03:41:36;4.55;;;1.60;;
77350;SDS011;66420;50.246;14.320;2023-04-03T03:44:21;7.65;;;1.70;;
77350;SDS011;66420;50.246;14.320;2023-04-03T03:47:06;6.38;;;1.65;;
77350;SDS011;66420;50.246;14.320;2023-04-03T03:49:53;5.63;;;1.80;;
77350;SDS011;66420;50.246;14.320;2023-04-03T03:52:38;8.65;;;2.08;;
77350;SDS011;66420;50.246;14.320;2023-04-03T03:55:23;5.57;;;1.83;;
77350;SDS011;66420;50.246;14.320;2023-04-03T03:58:09;8.32;;;1.73;;
77350;SDS011;66420;50.246;14.320;2023-04-03T04:00:54;3.85;;;1.30;;
77350;SDS011;66420;50.246;14.320;2023-04-03T04:03:39;9.02;;;2.38;;
77350;SDS011;66420;50.246;14.320;2023-04-03T04:06:24;6.05;;;1.90;;
77350;SDS011;66420;50.246;14.320;2023-04-03T04:09:09;7.07;;;1.67;;
77350;SDS011;66420;50.246;14.320;2023-04-03T04:11:54;7.03;;;1.63;;
77350;SDS011;66420;50.246;14.320;2023-04-03T04:14:39;4.75;;;1.70;;
77350;SDS011;66420;50.246;14.320;2023-04-03T04:17:24;5.57;;;1.75;;
77350;SDS011;66420;50.246;14.320;2023-04-03T04:20:09;4.78;;;1.52;;
77350;SDS011;66420;50.246;14.320;2023-04-03T04:22:55;5.50;;;1.60;;
77350;SDS011;66420;50.246;14.320;2023-04-03T04:25:40;5.38;;;1.30;;
77350;SDS011;66420;50.246;14.320;2023-04-03T04:32:05;8.05;;;1.83;;
77350;SDS011;66420;50.246;14.320;2023-04-03T04:34:50;5.95;;;1.80;;
77350;SDS011;66420;50.246;14.320;2023-04-03T04:37:35;4.40;;;1.50;;
77350;SDS011;66420;50.246;14.320;2023-04-03T04:40:20;7.88;;;1.75;;
77350;SDS011;66420;50.246;14.320;2023-04-03T04:43:05;7.18;;;2.00;;
77350;SDS011;66420;50.246;14.320;2023-04-03T04:45:59;3.35;;;1.55;;
77350;SDS011;66420;50.246;14.320;2023-04-03T04:48:48;6.13;;;1.80;;
77350;SDS011;66420;50.246;14.320;2023-04-03T04:51:33;9.20;;;2.50;;
77350;SDS011;66420;50.246;14.320;2023-04-03T04:54:18;7.60;;;2.45;;
77350;SDS011;66420;50.246;14.320;2023-04-03T04:57:03;8.52;;;2.72;;
77350;SDS011;66420;50.246;14.320;2023-04-03T04:59:48;6.57;;;2.60;;
77350;SDS011;66420;50.246;14.320;2023-04-03T05:02:32;7.63;;;2.47;;
77350;SDS011;66420;50.246;14.320;2023-04-03T05:05:17;8.10;;;2.42;;
77350;SDS011;66420;50.246;14.320;2023-04-03T05:08:02;5.75;;;2.55;;
77350;SDS011;66420;50.246;14.320;2023-04-03T05:10:48;7.05;;;2.08;;
77350;SDS011;66420;50.246;14.320;2023-04-03T05:13:33;7.82;;;2.33;;
77350;SDS011;66420;50.246;14.320;2023-04-03T05:16:17;5.20;;;2.00;;
77350;SDS011;66420;50.246;14.320;2023-04-03T05:19:02;9.77;;;2.38;;
77350;SDS011;66420;50.246;14.320;2023-04-03T05:21:47;8.73;;;1.90;;
77350;SDS011;66420;50.246;14.320;2023-04-03T05:24:32;6.80;;;2.40;;
77350;SDS011;66420;50.246;14.320;2023-04-03T05:27:17;4.47;;;2.25;;
77350;SDS011;66420;50.246;14.320;2023-04-03T05:30:02;8.25;;;2.20;;
77350;SDS011;66420;50.246;14.320;2023-04-03T05:32:48;4.55;;;1.80;;
77350;SDS011;66420;50.246;14.320;2023-04-03T05:35:35;7.15;;;1.85;;
77350;SDS011;66420;50.246;14.320;2023-04-03T05:38:20;6.70;;;2.20;;
77350;SDS011;66420;50.246;14.320;2023-04-03T05:41:06;3.13;;;1.55;;
77350;SDS011;66420;50.246;14.320;2023-04-03T05:43:50;7.53;;;1.95;;
77350;SDS011;66420;50.246;14.320;2023-04-03T05:46:35;10.52;;;2.15;;
77350;SDS011;66420;50.246;14.320;2023-04-03T05:49:19;5.18;;;2.33;;
77350;SDS011;66420;50.246;14.320;2023-04-03T05:52:05;8.27;;;2.10;;
77350;SDS011;66420;50.246;14.320;2023-04-03T05:54:50;12.65;;;2.28;;
77350;SDS011;66420;50.246;14.320;2023-04-03T05:57:35;5.15;;;2.40;;
77350;SDS011;66420;50.246;14.320;2023-04-03T06:00:19;9.50;;;2.17;;
77350;SDS011;66420;50.246;14.320;2023-04-03T06:03:05;6.72;;;1.80;;
77350;SDS011;66420;50.246;14.320;2023-04-03T06:05:50;6.15;;;2.13;;
77350;SDS011;66420;50.246;14.320;2023-04-03T06:08:35;6.22;;;2.13;;
77350;SDS011;66420;50.246;14.320;2023-04-03T06:11:19;4.13;;;1.90;;
77350;SDS011;66420;50.246;14.320;2023-04-03T06:14:05;6.28;;;2.85;;
77350;SDS011;66420;50.246;14.320;2023-04-03T06:16:49;5.97;;;1.85;;
77350;SDS011;66420;50.246;14.320;2023-04-03T06:19:35;4.45;;;2.13;;
77350;SDS011;66420;50.246;14.320;2023-04-03T06:22:20;10.70;;;2.30;;
77350;SDS011;66420;50.246;14.320;2023-04-03T06:25:05;5.07;;;2.28;;
77350;SDS011;66420;50.246;14.320;2023-04-03T06:27:50;4.63;;;2.63;;
77350;SDS011;66420;50.246;14.320;2023-04-03T06:30:34;4.28;;;2.40;;
77350;SDS011;66420;50.246;14.320;2023-04-03T06:33:19;6.20;;;2.58;;
77350;SDS011;66420;50.246;14.320;2023-04-03T06:36:04;4.60;;;2.17;;
77350;SDS011;66420;50.246;14.320;2023-04-03T06:38:49;5.68;;;1.90;;
77350;SDS011;66420;50.246;14.320;2023-04-03T06:41:34;10.07;;;2.80;;
77350;SDS011;66420;50.246;14.320;2023-04-03T06:44:18;5.82;;;1.73;;
77350;SDS011;66420;50.246;14.320;2023-04-03T06:47:03;4.07;;;1.98;;
77350;SDS011;66420;50.246;14.320;2023-04-03T06:49:48;5.25;;;1.90;;
77350;SDS011;66420;50.246;14.320;2023-04-03T06:52:34;5.80;;;2.05;;
77350;SDS011;66420;50.246;14.320;2023-04-03T06:55:19;4.78;;;2.10;;
77350;SDS011;66420;50.246;14.320;2023-04-03T06:58:04;7.22;;;1.90;;
77350;SDS011;66420;50.246;14.320;2023-04-03T07:00:49;8.43;;;3.03;;
77350;SDS011;66420;50.246;14.320;2023-04-03T07:03:34;6.22;;;2.20;;
77350;SDS011;66420;50.246;14.320;2023-04-03T07:06:19;5.85;;;1.90;;
77350;SDS011;66420;50.246;14.320;2023-04-03T07:09:04;6.43;;;2.38;;
77350;SDS011;66420;50.246;14.320;2023-04-03T07:11:49;6.60;;;2.65;;
77350;SDS011;66420;50.246;14.320;2023-04-03T07:14:34;5.90;;;2.45;;
77350;SDS011;66420;50.246;14.320;2023-04-03T07:17:18;4.72;;;2.28;;
77350;SDS011;66420;50.246;14.320;2023-04-03T07:20:03;4.13;;;2.30;;
77350;SDS011;66420;50.246;14.320;2023-04-03T07:27:52;5.47;;;2.45;;
77350;SDS011;66420;50.246;14.320;2023-04-03T07:30:42;5.38;;;2.50;;
77350;SDS011;66420;50.246;14.320;2023-04-03T07:33:31;5.28;;;2.55;;
77350;SDS011;66420;50.246;14.320;2023-04-03T07:36:18;5.00;;;2.13;;
77350;SDS011;66420;50.246;14.320;2023-04-03T07:39:04;4.07;;;1.88;;
77350;SDS011;66420;50.246;14.320;2023-04-03T07:41:50;6.45;;;1.95;;
77350;SDS011;66420;50.246;14.320;2023-04-03T07:44:35;5.72;;;2.47;;
77350;SDS011;66420;50.246;14.320;2023-04-03T07:47:20;8.25;;;2.75;;
77350;SDS011;66420;50.246;14.320;2023-04-03T07:50:05;4.90;;;2.03;;
77350;SDS011;66420;50.246;14.320;2023-04-03T07:52:51;4.40;;;1.77;;
77350;SDS011;66420;50.246;14.320;2023-04-03T07:55:38;4.43;;;2.00;;
77350;SDS011;66420;50.246;14.320;2023-04-03T07:58:27;4.03;;;2.00;;
77350;SDS011;66420;50.246;14.320;2023-04-03T08:01:11;7.13;;;2.33;;
77350;SDS011;66420;50.246;14.320;2023-04-03T08:03:56;6.82;;;2.33;;
77350;SDS011;66420;50.246;14.320;2023-04-03T08:06:41;4.57;;;1.92;;
77350;SDS011;66420;50.246;14.320;2023-04-03T08:09:25;6.28;;;2.28;;
77350;SDS011;66420;50.246;14.320;2023-04-03T08:12:10;5.60;;;2.03;;
77350;SDS011;66420;50.246;14.320;2023-04-03T08:14:55;5.78;;;2.28;;
77350;SDS011;66420;50.246;14.320;2023-04-03T08:17:40;4.82;;;1.92;;
77350;SDS011;66420;50.246;14.320;2023-04-03T08:20:26;7.38;;;2.25;;
77350;SDS011;66420;50.246;14.320;2023-04-03T08:23:11;6.28;;;2.30;;
77350;SDS011;66420;50.246;14.320;2023-04-03T08:25:55;5.30;;;2.40;;
77350;SDS011;66420;50.246;14.320;2023-04-03T08:28:40;5.05;;;2.33;;
77350;SDS011;66420;50.246;14.320;2023-04-03T08:31:25;5.60;;;2.15;;
77350;SDS011;66420;50.246;14.320;2023-04-03T08:34:13;5.13;;;1.83;;
77350;SDS011;66420;50.246;14.320;2023-04-03T08:36:58;3.47;;;1.90;;
77350;SDS011;66420;50.246;14.320;2023-04-03T08:39:43;4.57;;;1.95;;
77350;SDS011;66420;50.246;14.320;2023-04-03T08:48:36;5.88;;;2.00;;
77350;SDS011;66420;50.246;14.320;2023-04-03T08:51:25;6.13;;;2.33;;
77350;SDS011;66420;50.246;14.320;2023-04-03T08:54:14;7.88;;;2.13;;
77350;SDS011;66420;50.246;14.320;2023-04-03T08:57:27;4.68;;;1.88;;
77350;SDS011;66420;50.246;14.320;2023-04-03T09:00:20;3.75;;;1.58;;
77350;SDS011;66420;50.246;14.320;2023-04-03T09:03:10;3.28;;;1.33;;
77350;SDS011;66420;50.246;14.320;2023-04-03T09:09:14;4.93;;;1.90;;
77350;SDS011;66420;50.246;14.320;2023-04-03T09:12:19;8.90;;;1.80;;
77350;SDS011;66420;50.246;14.320;2023-04-03T09:21:13;5.38;;;1.92;;
77350;SDS011;66420;50.246;14.320;2023-04-03T09:24:05;5.15;;;2.38;;
77350;SDS011;66420;50.246;14.320;2023-04-03T09:29:41;6.38;;;2.17;;
77350;SDS011;66420;50.246;14.320;2023-04-03T09:32:31;5.25;;;2.05;;
77350;SDS011;66420;50.246;14.320;2023-04-03T09:35:37;5.45;;;2.33;;
77350;SDS011;66420;50.246;14.320;2023-04-03T09:38:24;5.32;;;1.50;;
77350;SDS011;66420;50.246;14.320;2023-04-03T09:41:16;6.63;;;1.70;;
77350;SDS011;66420;50.246;14.320;2023-04-03T09:44:03;4.22;;;2.03;;
77350;SDS011;66420;50.246;14.320;2023-04-03T09:53:02;3.63;;;1.58;;
77350;SDS011;66420;50.246;14.320;2023-04-03T09:55:51;4.78;;;1.55;;
77350;SDS011;66420;50.246;14.320;2023-04-03T09:58:37;2.92;;;1.23;;
77350;SDS011;66420;50.246;14.320;2023-04-03T10:04:15;3.40;;;1.52;;
77350;SDS011;66420;50.246;14.320;2023-04-03T10:07:02;7.13;;;1.77;;
77350;SDS011;66420;50.246;14.320;2023-04-03T10:09:54;8.48;;;1.60;;
77350;SDS011;66420;50.246;14.320;2023-04-03T10:12:42;8.98;;;2.03;;
77350;SDS011;66420;50.246;14.320;2023-04-03T10:15:27;2.83;;;1.40;;
77350;SDS011;66420;50.246;14.320;2023-04-03T10:21:15;5.78;;;1.50;;
77350;SDS011;66420;50.246;14.320;2023-04-03T10:24:19;3.47;;;1.13;;
77350;SDS011;66420;50.246;14.320;2023-04-03T10:27:11;4.05;;;1.50;;
77350;SDS011;66420;50.246;14.320;2023-04-03T10:30:32;5.72;;;1.83;;
77350;SDS011;66420;50.246;14.320;2023-04-03T10:45:41;3.83;;;1.27;;
77350;SDS011;66420;50.246;14.320;2023-04-03T10:58:34;5.13;;;1.20;;
77350;SDS011;66420;50.246;14.320;2023-04-03T11:01:24;4.18;;;1.40;;
77350;SDS011;66420;50.246;14.320;2023-04-03T11:04:16;3.95;;;1.33;;
77350;SDS011;66420;50.246;14.320;2023-04-03T11:07:23;4.13;;;1.30;;
77350;SDS011;66420;50.246;14.320;2023-04-03T11:13:17;3.05;;;1.45;;
77350;SDS011;66420;50.246;14.320;2023-04-03T11:16:13;3.20;;;1.23;;
77350;SDS011;66420;50.246;14.320;2023-04-03T11:25:20;5.45;;;1.35;;
77350;SDS011;66420;50.246;14.320;2023-04-03T11:28:12;3.10;;;1.10;;
77350;SDS011;66420;50.246;14.320;2023-04-03T11:31:05;3.83;;;1.27;;
77350;SDS011;66420;50.246;14.320;2023-04-03T11:45:52;4.25;;;1.20;;
77350;SDS011;66420;50.246;14.320;2023-04-03T11:48:43;6.47;;;1.20;;
77350;SDS011;66420;50.246;14.320;2023-04-03T11:54:35;3.55;;;1.25;;
77350;SDS011;66420;50.246;14.320;2023-04-03T11:57:31;4.72;;;1.33;;
77350;SDS011;66420;50.246;14.320;2023-04-03T12:00:50;3.10;;;1.00;;
77350;SDS011;66420;50.246;14.320;2023-04-03T12:12:35;5.43;;;1.40;;
77350;SDS011;66420;50.246;14.320;2023-04-03T12:15:38;11.77;;;1.33;;
77350;SDS011;66420;50.246;14.320;2023-04-03T12:18:42;5.60;;;1.60;;
77350;SDS011;66420;50.246;14.320;2023-04-03T12:24:32;3.55;;;1.02;;
77350;SDS011;66420;50.246;14.320;2023-04-03T12:27:30;4.03;;;1.23;;
77350;SDS011;66420;50.246;14.320;2023-04-03T12:30:21;4.25;;;0.90;;
77350;SDS011;66420;50.246;14.320;2023-04-03T12:33:17;3.70;;;1.23;;
77350;SDS011;66420;50.246;14.320;2023-04-03T12:36:18;4.78;;;1.20;;
77350;SDS011;66420;50.246;14.320;2023-04-03T12:46:02;4.13;;;1.10;;
77350;SDS011;66420;50.246;14.320;2023-04-03T12:48:52;2.92;;;1.30;;
77350;SDS011;66420;50.246;14.320;2023-04-03T12:51:40;4.70;;;1.10;;
77350;SDS011;66420;50.246;14.320;2023-04-03T12:54:35;6.10;;;1.00;;
77350;SDS011;66420;50.246;14.320;2023-04-03T12:57:25;5.25;;;0.88;;
77350;SDS011;66420;50.246;14.320;2023-04-03T13:00:45;4.93;;;0.90;;
77350;SDS011;66420;50.246;14.320;2023-04-03T13:03:24;2.90;;;1.00;;
77350;SDS011;66420;50.246;14.320;2023-04-03T13:06:14;3.03;;;0.93;;
77350;SDS011;66420;50.246;14.320;2023-04-03T13:09:04;2.47;;;0.85;;
77350;SDS011;66420;50.246;14.320;2023-04-03T13:11:51;3.70;;;1.00;;
77350;SDS011;66420;50.246;14.320;2023-04-03T13:14:53;5.30;;;1.83;;
77350;SDS011;66420;50.246;14.320;2023-04-03T13:17:41;7.07;;;1.58;;
77350;SDS011;66420;50.246;14.320;2023-04-03T13:20:30;3.78;;;1.20;;
77350;SDS011;66420;50.246;14.320;2023-04-03T13:23:19;3.10;;;0.95;;
77350;SDS011;66420;50.246;14.320;2023-04-03T13:26:05;5.35;;;1.50;;
77350;SDS011;66420;50.246;14.320;2023-04-03T13:28:51;2.45;;;1.00;;
77350;SDS011;66420;50.246;14.320;2023-04-03T13:31:37;5.00;;;1.13;;
77350;SDS011;66420;50.246;14.320;2023-04-03T13:34:24;2.25;;;0.80;;
77350;SDS011;66420;50.246;14.320;2023-04-03T13:37:19;3.45;;;1.23;;
77350;SDS011;66420;50.246;14.320;2023-04-03T13:43:00;2.45;;;0.80;;
77350;SDS011;66420;50.246;14.320;2023-04-03T13:46:20;3.20;;;0.93;;
77350;SDS011;66420;50.246;14.320;2023-04-03T13:49:18;8.07;;;1.20;;
77350;SDS011;66420;50.246;14.320;2023-04-03T13:52:21;4.25;;;0.82;;
77350;SDS011;66420;50.246;14.320;2023-04-03T13:55:17;2.83;;;0.98;;
77350;SDS011;66420;50.246;14.320;2023-04-03T14:00:55;5.10;;;1.30;;
77350;SDS011;66420;50.246;14.320;2023-04-03T14:03:50;2.58;;;0.85;;
77350;SDS011;66420;50.246;14.320;2023-04-03T14:06:43;2.40;;;0.90;;
77350;SDS011;66420;50.246;14.320;2023-04-03T14:09:28;2.13;;;0.88;;
77350;SDS011;66420;50.246;14.320;2023-04-03T14:15:16;2.53;;;0.88;;
77350;SDS011;66420;50.246;14.320;2023-04-03T14:18:04;3.42;;;0.98;;
77350;SDS011;66420;50.246;14.320;2023-04-03T14:20:48;3.33;;;1.05;;
77350;SDS011;66420;50.246;14.320;2023-04-03T14:23:33;2.63;;;0.85;;
77350;SDS011;66420;50.246;14.320;2023-04-03T14:26:20;2.47;;;1.02;;
77350;SDS011;66420;50.246;14.320;2023-04-03T14:29:09;2.53;;;0.90;;
77350;SDS011;66420;50.246;14.320;2023-04-03T14:31:55;5.18;;;1.00;;
77350;SDS011;66420;50.246;14.320;2023-04-03T14:34:41;3.08;;;0.85;;
77350;SDS011;66420;50.246;14.320;2023-04-03T14:37:28;2.58;;;1.13;;
77350;SDS011;66420;50.246;14.320;2023-04-03T14:40:16;4.07;;;1.05;;
77350;SDS011;66420;50.246;14.320;2023-04-03T14:43:05;4.38;;;1.10;;
77350;SDS011;66420;50.246;14.320;2023-04-03T14:45:50;4.85;;;0.90;;
77350;SDS011;66420;50.246;14.320;2023-04-03T14:48:35;4.18;;;1.02;;
77350;SDS011;66420;50.246;14.320;2023-04-03T14:51:20;2.53;;;0.82;;
77350;SDS011;66420;50.246;14.320;2023-04-03T14:54:05;4.32;;;0.85;;
77350;SDS011;66420;50.246;14.320;2023-04-03T14:56:56;3.78;;;1.30;;
77350;SDS011;66420;50.246;14.320;2023-04-03T14:59:44;2.83;;;1.13;;
77350;SDS011;66420;50.246;14.320;2023-04-03T15:02:30;3.58;;;1.35;;
77350;SDS011;66420;50.246;14.320;2023-04-03T15:05:17;2.92;;;1.15;;
77350;SDS011;66420;50.246;14.320;2023-04-03T15:08:03;3.00;;;1.20;;
77350;SDS011;66420;50.246;14.320;2023-04-03T15:10:48;3.05;;;1.15;;
77350;SDS011;66420;50.246;14.320;2023-04-03T15:13:34;2.20;;;0.90;;
77350;SDS011;66420;50.246;14.320;2023-04-03T15:16:19;3.67;;;1.13;;
77350;SDS011;66420;50.246;14.320;2023-04-03T15:19:04;2.90;;;1.02;;
77350;SDS011;66420;50.246;14.320;2023-04-03T15:21:49;3.42;;;1.23;;
77350;SDS011;66420;50.246;14.320;2023-04-03T15:24:34;4.13;;;1.00;;
77350;SDS011;66420;50.246;14.320;2023-04-03T15:27:18;2.60;;;1.20;;
77350;SDS011;66420;50.246;14.320;2023-04-03T15:30:04;5.43;;;1.20;;
77350;SDS011;66420;50.246;14.320;2023-04-03T15:32:51;2.75;;;1.00;;
77350;SDS011;66420;50.246;14.320;2023-04-03T15:35:37;2.22;;;0.90;;
77350;SDS011;66420;50.246;14.320;2023-04-03T15:38:21;3.35;;;1.10;;
77350;SDS011;66420;50.246;14.320;2023-04-03T15:41:06;3.22;;;1.10;;
77350;SDS011;66420;50.246;14.320;2023-04-03T15:43:51;1.95;;;0.95;;
77350;SDS011;66420;50.246;14.320;2023-04-03T15:46:36;3.38;;;1.15;;
77350;SDS011;66420;50.246;14.320;2023-04-03T15:49:21;4.95;;;1.00;;
77350;SDS011;66420;50.246;14.320;2023-04-03T15:52:06;4.90;;;1.48;;
77350;SDS011;66420;50.246;14.320;2023-04-03T15:54:51;4.60;;;1.10;;
77350;SDS011;66420;50.246;14.320;2023-04-03T15:57:36;4.43;;;1.50;;
77350;SDS011;66420;50.246;14.320;2023-04-03T16:00:21;3.08;;;1.15;;
77350;SDS011;66420;50.246;14.320;2023-04-03T16:03:11;4.05;;;0.90;;
77350;SDS011;66420;50.246;14.320;2023-04-03T16:05:59;3.97;;;1.05;;
77350;SDS011;66420;50.246;14.320;2023-04-03T16:08:46;5.85;;;1.40;;
77350;SDS011;66420;50.246;14.320;2023-04-03T16:11:33;2.53;;;1.00;;
77350;SDS011;66420;50.246;14.320;2023-04-03T16:14:20;2.38;;;1.02;;
77350;SDS011;66420;50.246;14.320;2023-04-03T16:17:05;4.03;;;1.20;;
77350;SDS011;66420;50.246;14.320;2023-04-03T16:19:50;3.38;;;1.38;;
77350;SDS011;66420;50.246;14.320;2023-04-03T16:22:35;2.15;;;1.10;;
77350;SDS011;66420;50.246;14.320;2023-04-03T16:25:21;3.25;;;1.20;;
77350;SDS011;66420;50.246;14.320;2023-04-03T16:28:05;3.25;;;1.10;;
77350;SDS011;66420;50.246;14.320;2023-04-03T16:30:50;4.05;;;1.40;;
77350;SDS011;66420;50.246;14.320;2023-04-03T16:33:35;4.35;;;1.27;;
77350;SDS011;66420;50.246;14.320;2023-04-03T16:36:21;4.35;;;1.50;;
77350;SDS011;66420;50.246;14.320;2023-04-03T16:39:05;5.53;;;1.20;;
77350;SDS011;66420;50.246;14.320;2023-04-03T16:41:50;4.35;;;1.27;;
77350;SDS011;66420;50.246;14.320;2023-04-03T16:44:36;3.42;;;1.20;;
77350;SDS011;66420;50.246;14.320;2023-04-03T16:47:21;3.83;;;1.63;;
77350;SDS011;66420;50.246;14.320;2023-04-03T16:50:06;3.67;;;1.48;;
77350;SDS011;66420;50.246;14.320;2023-04-03T16:52:51;5.43;;;1.70;;
77350;SDS011;66420;50.246;14.320;2023-04-03T16:55:36;4.40;;;1.55;;
77350;SDS011;66420;50.246;14.320;2023-04-03T16:58:21;4.43;;;1.30;;
77350;SDS011;66420;50.246;14.320;2023-04-03T17:01:10;4.82;;;1.40;;
77350;SDS011;66420;50.246;14.320;2023-04-03T17:03:57;7.00;;;2.40;;
77350;SDS011;66420;50.246;14.320;2023-04-03T17:06:41;3.13;;;1.52;;
77350;SDS011;66420;50.246;14.320;2023-04-03T17:09:26;4.90;;;1.35;;
77350;SDS011;66420;50.246;14.320;2023-04-03T17:12:11;4.50;;;1.73;;
77350;SDS011;66420;50.246;14.320;2023-04-03T17:14:56;4.85;;;1.40;;
77350;SDS011;66420;50.246;14.320;2023-04-03T17:17:41;4.22;;;1.70;;
77350;SDS011;66420;50.246;14.320;2023-04-03T17:20:26;4.88;;;1.52;;
77350;SDS011;66420;50.246;14.320;2023-04-03T17:23:11;3.97;;;0.95;;
77350;SDS011;66420;50.246;14.320;2023-04-03T17:25:55;7.07;;;1.52;;
77350;SDS011;66420;50.246;14.320;2023-04-03T17:28:40;4.30;;;1.70;;
77350;SDS011;66420;50.246;14.320;2023-04-03T17:31:25;4.47;;;1.70;;
77350;SDS011;66420;50.246;14.320;2023-04-03T17:34:10;7.88;;;2.00;;
77350;SDS011;66420;50.246;14.320;2023-04-03T17:36:56;6.90;;;2.42;;
77350;SDS011;66420;50.246;14.320;2023-04-03T17:39:40;5.25;;;2.00;;
77350;SDS011;66420;50.246;14.320;2023-04-03T17:42:25;4.80;;;1.60;;
77350;SDS011;66420;50.246;14.320;2023-04-03T17:45:10;5.65;;;1.48;;
77350;SDS011;66420;50.246;14.320;2023-04-03T17:47:55;7.78;;;2.90;;
77350;SDS011;66420;50.246;14.320;2023-04-03T17:50:39;15.40;;;4.82;;
77350;SDS011;66420;50.246;14.320;2023-04-03T17:53:24;10.73;;;4.13;;
77350;SDS011;66420;50.246;14.320;2023-04-03T17:56:11;22.98;;;5.53;;
77350;SDS011;66420;50.246;14.320;2023-04-03T17:58:58;16.75;;;5.70;;
77350;SDS011;66420;50.246;14.320;2023-04-03T18:01:44;9.77;;;3.25;;
77350;SDS011;66420;50.246;14.320;2023-04-03T18:04:30;5.72;;;2.42;;
77350;SDS011;66420;50.246;14.320;2023-04-03T18:07:15;7.43;;;2.53;;
77350;SDS011;66420;50.246;14.320;2023-04-03T18:10:00;4.40;;;2.20;;
77350;SDS011;66420;50.246;14.320;2023-04-03T18:12:48;4.22;;;2.15;;
77350;SDS011;66420;50.246;14.320;2023-04-03T18:15:33;5.82;;;1.92;;
77350;SDS011;66420;50.246;14.320;2023-04-03T18:18:17;7.05;;;2.00;;
77350;SDS011;66420;50.246;14.320;2023-04-03T18:21:03;6.25;;;2.40;;
77350;SDS011;66420;50.246;14.320;2023-04-03T18:23:49;4.30;;;1.60;;
77350;SDS011;66420;50.246;14.320;2023-04-03T18:26:36;9.38;;;2.10;;
77350;SDS011;66420;50.246;14.320;2023-04-03T18:29:20;6.45;;;2.40;;
77350;SDS011;66420;50.246;14.320;2023-04-03T18:32:06;5.85;;;1.83;;
77350;SDS011;66420;50.246;14.320;2023-04-03T18:34:53;6.80;;;2.60;;
77350;SDS011;66420;50.246;14.320;2023-04-03T18:37:39;6.20;;;2.42;;
77350;SDS011;66420;50.246;14.320;2023-04-03T18:40:24;6.05;;;2.22;;
77350;SDS011;66420;50.246;14.320;2023-04-03T18:43:09;5.35;;;2.20;;